Time;durP1;ratioP1;P1;durP2;ratioP2;P2;SDS_P1;SDS_P2;PMS_P1;PMS_P2;Temp;Humidity;BMP_temperature;BMP_pressure;BME280_temperature;BME280_humidity;BME280_pressure;Samples;Min_cycle;Max_cycle;Signal;HPM_P1;HPM_P2
2023/09/23 07:11:12;;;;;;;2.22;1.17;;;;;;;10.17;90.45;96534.53;2088153;28;21075;-68
2023/09/23 07:13:16;;;;;;;4.90;1.10;;;;;;;10.26;90.17;96536.75;2085541;28;21020;-69
2023/09/23 07:15:18;;;;;;;3.60;1.30;;;;;;;10.31;89.96;96542.59;2087023;28;20554;-68
2023/09/23 07:16:19;;;;;;;3.33;1.08;;;;;;;10.42;90.04;96549.97;2081217;28;20288;-70
2023/09/23 07:18:20;;;;;;;3.90;1.10;;;;;;;10.47;89.19;96552.38;2085010;28;20596;-68
2023/09/23 07:19:21;;;;;;;3.45;0.90;;;;;;;10.55;89.44;96547.63;2083940;28;20587;-70
2023/09/23 07:20:23;;;;;;;6.22;0.98;;;;;;;10.59;89.33;96555.28;2084230;28;20193;-71
2023/09/23 07:21:24;;;;;;;4.95;2.13;;;;;;;10.73;89.14;96552.00;2079233;28;20282;-71
2023/09/23 07:22:26;;;;;;;5.78;1.05;;;;;;;10.71;88.51;96559.06;2074806;28;20193;-71
2023/09/23 07:23:27;;;;;;;1.85;0.80;;;;;;;10.86;88.85;96554.91;2070739;28;20301;-71
2023/09/23 07:24:32;;;;;;;2.75;1.00;;;;;;;10.88;88.42;96550.44;2073529;28;20201;-71
2023/09/23 07:25:38;;;;;;;4.88;0.88;;;;;;;10.90;87.87;96559.03;2070673;28;20199;-71
2023/09/23 07:26:40;;;;;;;3.75;1.10;;;;;;;10.87;87.47;96564.44;2070241;28;20222;-71
2023/09/23 07:27:41;;;;;;;2.75;0.90;;;;;;;10.81;87.90;96564.72;2075686;28;20794;-71
2023/09/23 07:28:43;;;;;;;2.50;1.00;;;;;;;10.77;88.23;96557.94;2075901;28;20202;-71
2023/09/23 07:29:44;;;;;;;3.47;1.23;;;;;;;10.80;88.64;96556.97;2075502;28;20193;-71
2023/09/23 07:30:45;;;;;;;2.70;0.93;;;;;;;11.03;87.76;96567.13;2075438;28;20219;-72
2023/09/23 07:31:47;;;;;;;5.38;0.90;;;;;;;11.13;86.96;96564.94;2074606;28;20229;-71
2023/09/23 07:32:48;;;;;;;2.20;1.00;;;;;;;11.11;86.70;96566.81;2070901;28;20201;-71
2023/09/23 07:33:50;;;;;;;1.85;0.82;;;;;;;11.25;86.75;96560.91;2074957;28;20202;-71
2023/09/23 07:34:51;;;;;;;5.30;1.00;;;;;;;11.26;86.42;96570.41;2075574;28;20202;-71
2023/09/23 07:35:56;;;;;;;3.15;0.95;;;;;;;11.33;86.64;96563.16;2070982;28;20198;-72
2023/09/23 07:36:57;;;;;;;2.85;0.93;;;;;;;11.26;86.49;96571.28;2072125;28;20235;-71
2023/09/23 07:38:00;;;;;;;6.28;1.10;;;;;;;11.39;86.06;96562.84;2073205;28;20213;-71
2023/09/23 07:39:02;;;;;;;2.80;1.00;;;;;;;11.48;85.63;96565.00;2076897;28;20597;-71
2023/09/23 07:40:06;;;;;;;3.15;0.98;;;;;;;11.73;85.17;96566.38;2078115;28;20294;-71
2023/09/23 07:41:07;;;;;;;4.07;1.08;;;;;;;11.78;84.69;96564.38;2070310;28;20673;-71
2023/09/23 07:42:09;;;;;;;3.25;0.90;;;;;;;11.96;84.19;96564.38;2071101;28;20668;-71
2023/09/23 07:43:11;;;;;;;3.22;1.17;;;;;;;11.91;84.27;96560.22;2073118;28;20487;-71
2023/09/23 07:44:12;;;;;;;2.13;0.90;;;;;;;11.99;83.15;96564.25;2074165;28;20198;-71
2023/09/23 07:45:13;;;;;;;5.30;0.90;;;;;;;12.13;83.23;96571.38;2074579;28;20283;-71
2023/09/23 07:46:15;;;;;;;3.88;0.98;;;;;;;12.28;83.20;96572.34;2074121;28;20651;-71
2023/09/23 07:47:17;;;;;;;2.67;1.02;;;;;;;12.13;82.37;96581.84;2075617;28;20210;-71
2023/09/23 07:48:19;;;;;;;3.05;0.70;;;;;;;12.16;82.34;96585.13;2076794;28;20192;-71
2023/09/23 07:49:20;;;;;;;3.03;0.90;;;;;;;12.16;82.85;96585.13;2074720;28;20200;-71
2023/09/23 07:50:22;;;;;;;2.75;1.20;;;;;;;12.54;81.55;96586.66;2072594;28;20260;-71
2023/09/23 07:51:23;;;;;;;2.53;1.10;;;;;;;12.64;80.80;96587.03;2071704;28;20428;-70
2023/09/23 07:52:25;;;;;;;2.25;1.02;;;;;;;12.93;80.79;96587.22;2074172;28;20232;-71
2023/09/23 07:53:26;;;;;;;2.28;0.95;;;;;;;12.78;79.94;96584.50;2070783;28;20247;-71
2023/09/23 07:54:28;;;;;;;4.82;1.23;;;;;;;12.82;80.27;96583.38;2076356;28;20284;-71
2023/09/23 07:55:30;;;;;;;5.15;1.30;;;;;;;13.04;79.48;96590.09;2073956;28;20198;-70
2023/09/23 07:56:31;;;;;;;6.72;1.30;;;;;;;13.31;78.82;96587.69;2073679;28;20257;-70
2023/09/23 07:57:33;;;;;;;2.33;1.00;;;;;;;13.46;77.94;96598.25;2074134;28;20653;-70
2023/09/23 07:58:35;;;;;;;9.32;2.30;;;;;;;13.55;77.19;96598.59;2070734;28;20761;-71
2023/09/23 07:59:36;;;;;;;4.72;1.13;;;;;;;13.69;76.52;96595.19;2070987;28;20237;-70
2023/09/23 08:00:38;;;;;;;2.42;1.00;;;;;;;13.90;76.17;96600.09;2070645;28;20355;-70
2023/09/23 08:01:39;;;;;;;7.20;1.52;;;;;;;13.98;75.52;96602.25;2070389;28;20226;-70
2023/09/23 08:02:41;;;;;;;4.85;1.48;;;;;;;14.11;74.46;96602.41;2073004;28;20224;-71
2023/09/23 08:03:43;;;;;;;2.95;0.90;;;;;;;13.87;74.80;96611.63;2075399;28;20202;-71
2023/09/23 08:04:44;;;;;;;4.88;1.35;;;;;;;13.95;74.47;96608.53;2074913;28;20197;-70
2023/09/23 08:05:46;;;;;;;2.65;1.20;;;;;;;14.49;74.04;96610.59;2073848;28;20734;-70
2023/09/23 08:06:47;;;;;;;3.22;1.00;;;;;;;14.42;73.84;96618.94;2071222;28;20226;-70
2023/09/23 08:07:49;;;;;;;2.95;1.00;;;;;;;14.35;73.92;96613.22;2072325;28;20612;-70
2023/09/23 08:08:51;;;;;;;2.28;0.90;;;;;;;14.58;72.82;96619.69;2074199;28;20202;-70
2023/09/23 08:09:52;;;;;;;4.65;0.90;;;;;;;14.83;72.57;96615.56;2074708;28;20249;-71
2023/09/23 08:10:54;;;;;;;3.85;1.13;;;;;;;15.12;72.68;96620.78;2074520;28;20557;-70
2023/09/23 08:11:55;;;;;;;4.15;1.10;;;;;;;15.32;70.87;96616.91;2072407;28;20221;-70
2023/09/23 08:12:57;;;;;;;3.97;0.90;;;;;;;15.68;69.87;96621.56;2070673;28;20240;-70
2023/09/23 08:13:58;;;;;;;3.05;1.00;;;;;;;15.43;69.18;96611.78;2071331;28;20263;-71
2023/09/23 08:15:00;;;;;;;3.35;1.27;;;;;;;15.37;69.09;96622.69;2074099;28;20217;-70
2023/09/23 08:16:03;;;;;;;4.13;1.02;;;;;;;15.01;68.81;96619.69;2072749;28;20653;-71
2023/09/23 08:17:04;;;;;;;2.40;0.98;;;;;;;14.76;70.51;96617.75;2072024;28;20698;-70
2023/09/23 08:18:06;;;;;;;1.95;0.80;;;;;;;14.72;70.46;96625.94;2071702;28;21087;-70
2023/09/23 08:19:08;;;;;;;2.47;0.95;;;;;;;14.46;70.77;96628.31;2071865;28;20245;-71
2023/09/23 08:20:23;;;;;;;2.55;0.90;;;;;;;14.37;71.31;96622.69;2071921;28;20600;-71
2023/09/23 08:21:26;;;;;;;4.18;0.90;;;;;;;14.83;69.99;96621.69;2072819;28;20294;-71
2023/09/23 08:22:28;;;;;;;2.22;1.00;;;;;;;14.89;69.60;96624.88;2074460;28;20190;-70
2023/09/23 08:23:29;;;;;;;2.60;0.85;;;;;;;14.49;70.80;96636.88;2074737;28;20194;-71
2023/09/23 08:24:31;;;;;;;5.65;1.48;;;;;;;14.67;70.71;96629.66;2074069;28;20198;-70
2023/09/23 08:25:33;;;;;;;6.55;0.90;;;;;;;14.82;70.81;96642.81;2073804;28;20189;-70
2023/09/23 08:26:35;;;;;;;3.17;0.90;;;;;;;14.98;69.65;96640.06;2073062;28;20688;-70
2023/09/23 08:27:37;;;;;;;3.33;1.10;;;;;;;15.44;68.42;96638.94;2073875;28;20197;-71
2023/09/23 08:28:39;;;;;;;2.85;0.90;;;;;;;15.79;67.92;96641.06;2074575;28;20201;-71
2023/09/23 08:29:40;;;;;;;3.10;1.20;;;;;;;16.16;66.12;96641.28;2068657;28;20662;-71
2023/09/23 08:30:44;;;;;;;6.55;0.90;;;;;;;16.21;66.27;96643.59;2068074;28;20209;-71
2023/09/23 08:31:45;;;;;;;3.15;0.90;;;;;;;16.94;65.05;96637.72;2067914;28;20222;-70
2023/09/23 08:32:47;;;;;;;7.90;1.20;;;;;;;16.94;64.79;96639.53;2068798;28;20198;-71
2023/09/23 08:33:49;;;;;;;4.53;1.15;;;;;;;17.20;63.97;96637.66;2069355;28;20293;-70
2023/09/23 08:34:50;;;;;;;2.95;1.00;;;;;;;17.35;63.08;96640.16;2068543;28;20718;-70
2023/09/23 08:35:52;;;;;;;4.22;1.20;;;;;;;17.49;63.38;96634.72;2068974;28;20202;-71
2023/09/23 08:36:53;;;;;;;3.70;1.40;;;;;;;17.64;62.71;96638.03;2068622;28;20659;-70
2023/09/23 08:37:55;;;;;;;8.65;4.30;;;;;;;17.57;62.53;96640.28;2068911;28;20205;-71
2023/09/23 08:38:56;;;;;;;3.20;1.10;;;;;;;17.39;62.96;96642.44;2067949;28;20222;-69
2023/09/23 08:39:58;;;;;;;4.80;2.60;;;;;;;17.66;61.47;96646.69;2068310;28;20202;-69
2023/09/23 08:41:04;;;;;;;4.25;1.58;;;;;;;17.31;60.40;96647.44;2071956;28;20314;-69
2023/09/23 08:42:06;;;;;;;5.25;1.50;;;;;;;17.30;60.88;96649.22;2067776;28;20889;-68
2023/09/23 08:43:07;;;;;;;3.38;2.40;;;;;;;17.38;62.20;96653.97;2068305;28;20581;-68
2023/09/23 08:44:10;;;;;;;4.20;1.25;;;;;;;17.37;61.69;96651.44;2068756;28;20198;-68
2023/09/23 08:45:13;;;;;;;3.30;0.93;;;;;;;17.24;62.37;96647.06;2069322;28;20282;-68
2023/09/23 08:46:16;;;;;;;3.10;1.30;;;;;;;17.21;63.09;96657.81;2068781;28;20281;-68
2023/09/23 08:47:19;;;;;;;3.88;1.00;;;;;;;17.32;63.34;96653.56;2067785;28;20190;-68
2023/09/23 08:48:21;;;;;;;2.22;1.00;;;;;;;17.07;63.56;96655.31;2067752;28;20190;-68
2023/09/23 08:49:25;;;;;;;3.63;1.10;;;;;;;16.78;63.68;96647.63;2068843;28;20646;-68
2023/09/23 08:50:27;;;;;;;6.28;1.30;;;;;;;16.42;64.67;96655.31;2067823;28;20625;-68
2023/09/23 08:51:30;;;;;;;2.75;1.02;;;;;;;16.40;64.27;96653.75;2068974;28;20218;-68
2023/09/23 08:52:32;;;;;;;3.10;0.90;;;;;;;15.96;64.10;96655.78;2069867;28;20845;-68
2023/09/23 08:53:37;;;;;;;4.65;0.98;;;;;;;15.88;64.58;96655.44;2070946;28;20269;-70
2023/09/23 08:54:39;;;;;;;3.42;1.05;;;;;;;16.22;64.86;96646.13;2067327;28;20213;-69
2023/09/23 08:55:43;;;;;;;3.35;1.10;;;;;;;16.11;64.67;96649.50;2067763;28;20233;-69
2023/09/23 08:56:45;;;;;;;6.05;1.30;;;;;;;16.20;64.43;96655.09;2068145;28;20750;-69
2023/09/23 08:57:47;;;;;;;3.55;0.93;;;;;;;16.30;64.41;96645.59;2067567;28;20198;-69
2023/09/23 08:58:49;;;;;;;2.95;1.17;;;;;;;16.51;64.00;96648.59;2066277;28;20305;-69
2023/09/23 08:59:51;;;;;;;2.83;0.90;;;;;;;16.45;62.87;96641.94;2067355;28;20199;-69
2023/09/23 09:00:53;;;;;;;3.42;1.10;;;;;;;16.91;63.51;96650.28;2068562;28;20202;-69
2023/09/23 09:01:55;;;;;;;3.50;0.90;;;;;;;17.14;62.53;96651.28;2066616;28;20249;-69
2023/09/23 09:02:57;;;;;;;3.50;0.98;;;;;;;17.15;62.35;96652.97;2067212;28;20248;-69
2023/09/23 09:03:59;;;;;;;3.88;1.00;;;;;;;16.90;62.56;96644.13;2068536;28;20201;-69
2023/09/23 09:05:00;;;;;;;3.03;1.00;;;;;;;16.78;62.64;96644.97;2067915;28;20209;-69
2023/09/23 09:06:03;;;;;;;1.50;0.80;;;;;;;16.91;61.65;96651.13;2067669;28;20199;-69
2023/09/23 09:07:05;;;;;;;3.95;1.08;;;;;;;17.53;61.64;96651.16;2068425;28;20230;-69
2023/09/23 09:08:06;;;;;;;5.07;1.63;;;;;;;17.73;60.58;96650.56;2068023;28;20199;-69
2023/09/23 09:09:08;;;;;;;6.13;1.00;;;;;;;17.86;60.30;96650.47;2069816;28;20248;-69
2023/09/23 09:10:10;;;;;;;3.42;0.95;;;;;;;17.76;59.22;96650.34;2065025;28;20198;-69
2023/09/23 09:11:20;;;;;;;3.13;1.05;;;;;;;17.26;60.06;96654.84;2064395;28;20241;-69
2023/09/23 09:12:22;;;;;;;2.55;0.90;;;;;;;17.27;61.02;96649.47;2069460;28;21149;-69
2023/09/23 09:13:24;;;;;;;5.40;1.00;;;;;;;17.39;60.32;96657.44;2067654;28;20206;-69
2023/09/23 09:14:25;;;;;;;4.25;1.10;;;;;;;17.82;60.04;96651.66;2067968;28;20234;-69
2023/09/23 09:15:27;;;;;;;6.70;1.00;;;;;;;18.44;58.51;96657.66;2067546;28;20245;-69
2023/09/23 09:16:29;;;;;;;2.65;1.10;;;;;;;18.68;58.32;96662.03;2064260;28;20594;-69
2023/09/23 09:17:33;;;;;;;4.03;1.10;;;;;;;19.05;57.49;96654.72;2067156;28;20264;-69
2023/09/23 09:18:35;;;;;;;3.47;1.13;;;;;;;19.21;56.99;96653.50;2067998;28;20280;-69
2023/09/23 09:19:39;;;;;;;6.20;1.58;;;;;;;18.92;57.41;96657.50;2068330;28;20227;-69
2023/09/23 09:20:41;;;;;;;4.85;1.00;;;;;;;19.19;55.28;96664.22;2068824;28;20206;-69
2023/09/23 09:21:42;;;;;;;2.67;0.93;;;;;;;19.21;55.00;96666.75;2067347;28;20231;-69
2023/09/23 09:22:45;;;;;;;4.70;1.02;;;;;;;19.30;55.80;96657.22;2066426;28;20234;-69
2023/09/23 09:23:47;;;;;;;5.20;1.17;;;;;;;19.55;55.17;96662.25;2068602;28;20246;-70
2023/09/23 09:24:49;;;;;;;4.32;1.58;;;;;;;20.44;54.77;96666.47;2067868;28;20198;-70
2023/09/23 09:25:50;;;;;;;3.75;0.90;;;;;;;21.19;51.48;96667.19;2068130;28;20240;-69
2023/09/23 09:26:51;;;;;;;5.13;0.98;;;;;;;20.26;51.70;96657.44;2065806;28;20595;-68
2023/09/23 09:27:53;;;;;;;5.20;0.98;;;;;;;20.34;52.40;96665.56;2065806;28;20198;-68
2023/09/23 09:28:54;;;;;;;3.40;1.25;;;;;;;20.10;52.97;96666.69;2065479;28;20687;-68
2023/09/23 09:29:56;;;;;;;4.20;1.02;;;;;;;19.66;53.76;96674.63;2068337;28;20212;-68
2023/09/23 09:31:15;;;;;;;8.45;0.90;;;;;;;19.72;53.84;96668.81;2068016;28;20221;-68
2023/09/23 09:32:18;;;;;;;5.85;1.20;;;;;;;19.64;53.98;96673.06;2068443;28;20263;-68
2023/09/23 09:33:24;;;;;;;1.90;0.95;;;;;;;19.74;53.32;96669.56;2068521;28;20257;-68
2023/09/23 09:34:31;;;;;;;3.95;0.90;;;;;;;19.84;54.13;96671.47;2068112;28;20256;-68
2023/09/23 09:35:33;;;;;;;3.03;1.00;;;;;;;19.53;54.78;96673.94;2070882;28;20197;-68
2023/09/23 09:36:37;;;;;;;3.33;1.38;;;;;;;18.30;57.30;96671.94;2068495;28;20233;-68
2023/09/23 09:37:45;;;;;;;2.45;0.80;;;;;;;18.36;57.99;96662.69;2067716;28;20199;-68
2023/09/23 09:38:53;;;;;;;5.05;1.00;;;;;;;18.99;55.92;96667.63;2067069;28;20202;-69
2023/09/23 09:40:00;;;;;;;2.45;1.00;;;;;;;18.82;57.02;96667.09;2064667;28;20202;-68
2023/09/23 09:41:04;;;;;;;2.10;0.80;;;;;;;18.14;57.00;96666.13;2065273;28;20198;-68
2023/09/23 09:42:09;;;;;;;3.42;1.10;;;;;;;18.04;57.07;96658.88;2067672;28;20873;-68
2023/09/23 09:43:11;;;;;;;2.75;0.85;;;;;;;17.79;57.46;96658.03;2068582;28;20251;-68
2023/09/23 09:44:15;;;;;;;5.53;1.40;;;;;;;18.36;57.46;96657.41;2069208;28;20209;-70
2023/09/23 09:45:19;;;;;;;2.40;1.00;;;;;;;19.90;54.60;96658.56;2068595;28;20285;-71
2023/09/23 09:46:21;;;;;;;2.63;1.10;;;;;;;20.27;53.29;96652.00;2067870;28;20205;-70
2023/09/23 09:47:23;;;;;;;5.35;1.00;;;;;;;20.77;52.08;96651.34;2068113;28;20190;-70
2023/09/23 09:48:28;;;;;;;4.22;1.42;;;;;;;20.74;51.19;96648.97;2067633;28;20253;-70
2023/09/23 09:49:31;;;;;;;2.60;0.90;;;;;;;20.34;51.76;96654.97;2066444;28;20213;-70
2023/09/23 09:50:38;;;;;;;6.05;1.13;;;;;;;21.14;51.16;96650.81;2066494;28;20245;-70
2023/09/23 09:51:40;;;;;;;3.20;1.20;;;;;;;22.23;49.58;96657.16;2066658;28;20230;-71
2023/09/23 09:52:45;;;;;;;3.22;1.30;;;;;;;21.16;51.49;96656.00;2066553;28;20202;-70
2023/09/23 09:53:47;;;;;;;5.90;1.00;;;;;;;19.84;52.84;96659.06;2071751;28;20244;-70
2023/09/23 09:54:52;;;;;;;7.35;1.10;;;;;;;19.83;54.74;96668.00;2072060;28;20289;-71
2023/09/23 09:55:56;;;;;;;9.98;1.27;;;;;;;20.93;53.13;96658.84;2068172;28;20213;-70
2023/09/23 09:56:59;;;;;;;5.93;1.30;;;;;;;21.02;51.68;96663.34;2064654;28;20233;-68
2023/09/23 09:58:03;;;;;;;3.85;1.05;;;;;;;20.18;53.39;96663.38;2068176;28;20210;-68
2023/09/23 09:59:05;;;;;;;2.30;0.80;;;;;;;19.69;54.45;96666.44;2066511;28;20194;-67
2023/09/23 10:00:15;;;;;;;4.43;0.93;;;;;;;19.09;54.94;96655.34;2068855;28;20614;-67
2023/09/23 10:01:17;;;;;;;5.38;1.63;;;;;;;19.88;53.60;96660.50;2068214;28;20206;-67
2023/09/23 10:02:21;;;;;;;2.22;0.95;;;;;;;19.27;55.26;96660.97;2068312;28;20193;-67
2023/09/23 10:03:23;;;;;;;3.63;1.05;;;;;;;18.97;56.53;96661.59;2069237;28;20194;-68
2023/09/23 10:04:32;;;;;;;6.47;1.73;;;;;;;18.24;57.75;96667.09;2068186;28;20198;-67
2023/09/23 10:05:40;;;;;;;9.20;1.10;;;;;;;17.56;58.44;96659.72;2068239;28;20206;-67
2023/09/23 10:06:42;;;;;;;2.30;0.90;;;;;;;17.08;57.87;96657.84;2067178;28;20226;-67
2023/09/23 10:07:56;;;;;;;4.13;1.40;;;;;;;16.68;60.24;96659.75;2067986;28;20222;-67
2023/09/23 10:08:57;;;;;;;5.60;1.52;;;;;;;16.58;61.00;96664.81;2068380;28;20205;-67
2023/09/23 10:09:59;;;;;;;3.65;1.02;;;;;;;16.55;61.65;96659.75;2067595;28;20237;-67
2023/09/23 10:11:04;;;;;;;6.55;1.10;;;;;;;16.39;60.87;96652.06;2066865;28;20202;-67
2023/09/23 10:12:06;;;;;;;4.18;1.30;;;;;;;16.26;61.27;96658.16;2063794;28;20222;-67
2023/09/23 10:13:11;;;;;;;5.15;1.08;;;;;;;16.46;62.00;96656.78;2065314;28;20206;-68
2023/09/23 10:14:17;;;;;;;2.78;1.00;;;;;;;16.92;60.58;96665.97;2066129;28;20743;-67
2023/09/23 10:15:26;;;;;;;1.90;0.80;;;;;;;18.93;55.97;96658.34;2066918;28;20649;-67
2023/09/23 10:16:29;;;;;;;3.72;1.30;;;;;;;20.15;53.89;96660.97;2067442;28;20222;-68
2023/09/23 10:17:31;;;;;;;4.18;1.17;;;;;;;19.80;53.48;96656.78;2063989;28;20277;-68
2023/09/23 10:18:37;;;;;;;4.80;1.08;;;;;;;19.34;53.33;96654.22;2064558;28;20288;-68
2023/09/23 10:19:41;;;;;;;2.40;0.80;;;;;;;18.39;54.89;96663.28;2068179;28;20211;-68
2023/09/23 10:21:02;;;;;;;4.95;1.02;;;;;;;19.45;53.33;96666.59;2068501;28;20664;-68
2023/09/23 10:22:17;;;;;;;2.90;1.35;;;;;;;20.79;51.59;96660.03;2067112;28;20226;-68
2023/09/23 10:23:20;;;;;;;2.88;0.93;;;;;;;22.08;48.82;96667.38;2064243;28;20554;-68
2023/09/23 10:24:23;;;;;;;3.60;1.10;;;;;;;22.47;47.91;96662.06;2064094;28;20198;-68
2023/09/23 10:25:36;;;;;;;2.50;1.10;;;;;;;22.81;46.99;96665.03;2065705;28;20198;-68
2023/09/23 10:26:43;;;;;;;2.42;0.80;;;;;;;22.08;47.48;96664.72;2068260;28;20625;-68
2023/09/23 10:27:56;;;;;;;3.30;1.10;;;;;;;22.79;47.52;96669.69;2069596;28;20280;-68
2023/09/23 10:29:03;;;;;;;2.80;1.00;;;;;;;21.86;47.21;96674.63;2065684;28;20307;-68
2023/09/23 10:30:06;;;;;;;6.15;1.33;;;;;;;22.82;45.62;96666.72;2070736;28;20225;-70
2023/09/23 10:31:07;;;;;;;6.00;1.00;;;;;;;23.84;45.50;96679.31;2069760;28;20206;-68
2023/09/23 10:32:14;;;;;;;3.50;1.08;;;;;;;23.23;44.33;96669.13;2070037;28;20198;-68
2023/09/23 10:33:16;;;;;;;6.75;1.30;;;;;;;23.18;45.93;96668.72;2069072;28;20749;-70
2023/09/23 10:34:17;;;;;;;7.50;1.65;;;;;;;23.59;44.67;96671.03;2067507;28;20638;-68
2023/09/23 10:35:23;;;;;;;2.60;0.95;;;;;;;23.81;44.72;96670.63;2064013;28;20205;-69
2023/09/23 10:36:24;;;;;;;3.28;1.20;;;;;;;24.88;44.28;96668.03;2064694;28;20639;-69
2023/09/23 10:37:29;;;;;;;3.75;1.35;;;;;;;24.84;44.00;96660.53;2063830;28;20333;-68
2023/09/23 10:38:38;;;;;;;3.38;1.50;;;;;;;25.16;43.40;96653.66;2064289;28;20213;-69
2023/09/23 10:39:44;;;;;;;5.25;1.02;;;;;;;23.69;42.88;96661.16;2064791;28;20224;-68
2023/09/23 10:40:53;;;;;;;3.63;1.00;;;;;;;23.15;45.02;96659.22;2066934;28;20276;-69
2023/09/23 10:41:55;;;;;;;4.80;0.98;;;;;;;22.02;46.74;96656.31;2067637;28;20283;-68
2023/09/23 10:43:03;;;;;;;2.78;1.00;;;;;;;21.77;48.70;96660.34;2067640;28;20228;-68
2023/09/23 10:44:05;;;;;;;10.85;1.65;;;;;;;21.38;49.58;96660.25;2069807;28;20198;-69
2023/09/23 10:45:08;;;;;;;2.22;1.00;;;;;;;20.02;51.22;96666.47;2067596;28;20259;-68
2023/09/23 10:46:10;;;;;;;3.53;1.17;;;;;;;19.58;52.86;96663.81;2067475;28;20201;-68
2023/09/23 10:47:13;;;;;;;2.58;1.00;;;;;;;19.59;52.25;96668.13;2068013;28;20210;-69
2023/09/23 10:48:16;;;;;;;2.78;0.90;;;;;;;19.35;53.25;96665.66;2067450;28;20233;-68
2023/09/23 10:49:18;;;;;;;3.50;1.13;;;;;;;20.36;52.34;96663.66;2067821;28;20198;-68
2023/09/23 10:50:20;;;;;;;4.63;0.90;;;;;;;20.95;50.82;96664.84;2067884;28;20199;-68
2023/09/23 10:51:22;;;;;;;1.85;0.85;;;;;;;21.93;50.13;96666.94;2067092;28;20231;-68
2023/09/23 10:52:23;;;;;;;2.85;1.05;;;;;;;22.47;48.91;96664.72;2067725;28;20190;-68
2023/09/23 10:53:27;;;;;;;3.47;0.95;;;;;;;22.40;48.70;96661.78;2067771;28;20222;-68
2023/09/23 10:54:29;;;;;;;3.22;1.13;;;;;;;21.29;51.17;96661.06;2068163;28;20202;-68
2023/09/23 10:55:31;;;;;;;10.80;6.60;;;;;;;20.62;51.78;96664.09;2067509;28;20221;-68
2023/09/23 10:56:33;;;;;;;11.30;3.55;;;;;;;21.06;51.50;96666.56;2065925;28;20691;-69
2023/09/23 10:57:36;;;;;;;23.98;15.43;;;;;;;21.53;50.24;96671.31;2067303;28;20194;-68
2023/09/23 10:58:38;;;;;;;10.32;3.65;;;;;;;21.69;47.99;96670.84;2074189;28;20250;-70
2023/09/23 10:59:43;;;;;;;5.30;1.33;;;;;;;21.93;48.12;96667.78;2071248;28;20645;-69
2023/09/23 11:00:46;;;;;;;4.93;0.90;;;;;;;22.06;47.19;96672.00;2067267;28;20251;-69
2023/09/23 11:01:49;;;;;;;4.32;1.05;;;;;;;22.33;46.46;96673.94;2066620;28;20275;-69
2023/09/23 11:02:52;;;;;;;4.20;0.90;;;;;;;22.47;45.11;96670.03;2066118;28;20202;-69
2023/09/23 11:03:54;;;;;;;2.80;0.88;;;;;;;22.76;45.85;96677.94;2071022;28;20794;-69
2023/09/23 11:04:56;;;;;;;2.83;1.05;;;;;;;22.87;46.03;96673.44;2071204;28;20210;-69
2023/09/23 11:05:57;;;;;;;4.10;0.80;;;;;;;22.86;45.08;96672.59;2067090;28;20562;-69
2023/09/23 11:06:59;;;;;;;3.00;1.00;;;;;;;23.49;44.13;96676.44;2067235;28;20229;-69
2023/09/23 11:08:01;;;;;;;7.53;0.90;;;;;;;23.67;44.21;96672.97;2067798;28;20214;-69
2023/09/23 11:09:05;;;;;;;3.70;0.90;;;;;;;23.95;43.36;96676.47;2068076;28;20312;-69
2023/09/23 11:10:07;;;;;;;3.55;1.13;;;;;;;22.58;45.55;96675.19;2067911;28;20201;-69
2023/09/23 11:11:09;;;;;;;2.95;0.80;;;;;;;23.26;45.19;96657.34;2066512;28;20228;-69
2023/09/23 11:12:13;;;;;;;5.28;1.10;;;;;;;22.16;46.55;96673.66;2067318;28;20206;-69
2023/09/23 11:13:15;;;;;;;3.42;1.75;;;;;;;21.85;47.36;96670.28;2066005;28;20202;-69
2023/09/23 11:14:19;;;;;;;8.32;4.40;;;;;;;21.61;47.32;96668.88;2064724;28;20721;-69
2023/09/23 11:15:21;;;;;;;9.25;1.40;;;;;;;22.69;45.48;96674.22;2066972;28;20642;-69
2023/09/23 11:16:23;;;;;;;5.35;1.90;;;;;;;23.03;44.04;96667.50;2063413;28;20232;-71
2023/09/23 11:17:30;;;;;;;3.22;1.10;;;;;;;22.62;43.16;96660.63;2065396;28;20214;-69
2023/09/23 11:18:33;;;;;;;4.30;0.95;;;;;;;21.94;44.92;96671.28;2067877;28;20193;-70
2023/09/23 11:19:35;;;;;;;2.00;0.80;;;;;;;21.33;45.59;96675.75;2066605;28;20202;-70
2023/09/23 11:20:41;;;;;;;7.00;1.10;;;;;;;22.40;44.77;96675.09;2067011;28;20241;-70
2023/09/23 11:21:46;;;;;;;6.88;1.30;;;;;;;21.10;45.33;96670.63;2067225;28;20245;-70
2023/09/23 11:22:47;;;;;;;3.60;1.02;;;;;;;19.82;47.99;96665.41;2069149;28;20201;-70
2023/09/23 11:23:57;;;;;;;2.65;0.93;;;;;;;19.78;48.89;96672.75;2065764;28;20256;-70
2023/09/23 11:24:59;;;;;;;4.03;0.80;;;;;;;18.90;49.49;96675.28;2065868;28;20198;-69
2023/09/23 11:26:00;;;;;;;2.72;0.80;;;;;;;18.37;51.08;96678.44;2066141;28;20289;-70
2023/09/23 11:27:06;;;;;;;6.30;0.90;;;;;;;19.95;49.16;96674.09;2064933;28;20241;-69
2023/09/23 11:28:21;;;;;;;2.13;0.80;;;;;;;20.49;48.33;96668.75;2067416;28;20205;-70
2023/09/23 11:29:23;;;;;;;3.25;1.20;;;;;;;20.48;48.19;96677.69;2066224;28;20202;-70
2023/09/23 11:30:25;;;;;;;2.22;0.90;;;;;;;20.97;46.91;96678.81;2065797;28;20618;-71
2023/09/23 11:31:26;;;;;;;2.85;0.85;;;;;;;21.40;46.56;96668.94;2067991;28;20264;-69
2023/09/23 11:32:28;;;;;;;3.35;0.82;;;;;;;21.24;46.41;96673.91;2067057;28;20210;-69
2023/09/23 11:33:29;;;;;;;4.68;1.00;;;;;;;20.73;46.69;96670.34;2067811;28;20820;-69
2023/09/23 11:34:31;;;;;;;1.98;0.80;;;;;;;20.44;47.68;96676.25;2067414;28;20206;-69
2023/09/23 11:35:33;;;;;;;6.00;1.10;;;;;;;20.41;47.99;96673.88;2067636;28;20198;-70
2023/09/23 11:36:35;;;;;;;4.47;1.15;;;;;;;19.62;49.44;96683.78;2068166;28;20965;-69
2023/09/23 11:37:36;;;;;;;4.75;0.90;;;;;;;19.67;49.06;96675.47;2063828;28;20201;-70
2023/09/23 11:38:39;;;;;;;1.80;0.90;;;;;;;19.12;50.57;96683.38;2064415;28;20675;-69
2023/09/23 11:39:42;;;;;;;3.28;0.95;;;;;;;18.49;51.87;96675.84;2066315;28;20210;-69
2023/09/23 11:40:45;;;;;;;5.18;0.88;;;;;;;18.42;52.98;96686.88;2063705;28;20214;-70
2023/09/23 11:41:47;;;;;;;4.13;1.10;;;;;;;18.56;53.15;96680.53;2064398;28;20230;-69
2023/09/23 11:42:48;;;;;;;3.60;0.95;;;;;;;18.58;52.85;96680.41;2066293;28;20253;-69
2023/09/23 11:43:50;;;;;;;9.48;1.52;;;;;;;19.43;50.73;96676.47;2063767;28;20198;-69
2023/09/23 11:44:52;;;;;;;6.78;2.85;;;;;;;19.07;52.08;96675.78;2064027;28;20313;-68
2023/09/23 11:45:54;;;;;;;23.75;15.68;;;;;;;19.70;52.26;96676.03;2066759;28;20208;-69
2023/09/23 11:46:55;;;;;;;5.60;2.45;;;;;;;19.15;53.47;96672.56;2066411;28;20635;-69
2023/09/23 11:47:57;;;;;;;3.63;2.00;;;;;;;19.01;52.50;96673.63;2066834;28;20649;-69
2023/09/23 11:48:59;;;;;;;2.92;1.00;;;;;;;18.61;52.29;96677.53;2069885;28;20432;-68
2023/09/23 11:50:00;;;;;;;8.32;0.88;;;;;;;18.60;52.83;96678.47;2069127;28;20202;-68
2023/09/23 11:51:02;;;;;;;2.85;0.82;;;;;;;19.08;52.72;96680.09;2069781;28;20233;-69
2023/09/23 11:52:11;;;;;;;2.38;0.80;;;;;;;20.08;50.46;96675.72;2066154;28;20222;-69
2023/09/23 11:53:13;;;;;;;2.50;0.80;;;;;;;21.17;50.08;96679.75;2067912;28;20290;-69
2023/09/23 11:54:15;;;;;;;2.30;0.90;;;;;;;21.65;49.93;96693.34;2063645;28;20665;-69
2023/09/23 11:55:16;;;;;;;4.35;1.15;;;;;;;22.33;47.88;96692.56;2064168;28;20738;-69
2023/09/23 11:56:18;;;;;;;2.58;1.05;;;;;;;20.46;50.15;96693.72;2065874;28;20191;-69
2023/09/23 11:57:19;;;;;;;2.70;0.93;;;;;;;20.06;51.52;96694.38;2063754;28;20253;-69
2023/09/23 11:58:21;;;;;;;3.35;1.00;;;;;;;19.94;52.09;96696.25;2065108;28;20195;-69
2023/09/23 11:59:23;;;;;;;4.40;1.25;;;;;;;19.87;51.59;96695.06;2061387;28;20238;-69
2023/09/23 12:00:25;;;;;;;5.43;0.95;;;;;;;19.86;52.50;96686.28;2064521;28;20211;-69
2023/09/23 12:01:27;;;;;;;4.40;1.08;;;;;;;19.84;52.49;96703.25;2063048;28;20663;-70
2023/09/23 12:02:30;;;;;;;5.55;0.85;;;;;;;19.65;51.91;96701.22;2066184;28;20293;-69
2023/09/23 12:03:32;;;;;;;2.97;0.85;;;;;;;19.15;52.82;96696.38;2067075;28;20199;-69
2023/09/23 12:04:34;;;;;;;5.07;0.80;;;;;;;19.33;52.93;96702.00;2068316;28;20195;-69
2023/09/23 12:05:36;;;;;;;4.07;0.88;;;;;;;18.99;53.35;96702.00;2068752;28;20201;-69
2023/09/23 12:06:37;;;;;;;1.95;0.90;;;;;;;19.21;53.61;96698.50;2068869;28;20234;-69
2023/09/23 12:07:39;;;;;;;3.10;0.90;;;;;;;19.01;54.57;96700.09;2067605;28;20221;-69
2023/09/23 12:08:41;;;;;;;5.20;1.10;;;;;;;18.53;53.85;96709.00;2070543;28;20213;-68
2023/09/23 12:09:43;;;;;;;1.88;0.80;;;;;;;18.28;54.04;96698.50;2067531;28;20256;-69
2023/09/23 12:10:45;;;;;;;2.00;0.88;;;;;;;18.66;54.51;96699.16;2068728;28;20693;-69